createdAt,value
2019-02-22T00:00:28.032Z,1034.63
2019-02-22T00:01:27.870Z,1034.63
2019-02-22T00:02:27.876Z,1034.68
2019-02-22T00:03:27.877Z,1034.70
2019-02-22T00:04:27.883Z,1034.67
2019-02-22T00:05:27.888Z,1034.70
2019-02-22T00:06:27.895Z,1034.75
2019-02-22T00:07:27.898Z,1034.76
2019-02-22T00:08:27.905Z,1034.78
2019-02-22T00:09:27.908Z,1034.77
2019-02-22T00:10:27.915Z,1034.83
2019-02-22T00:11:27.918Z,1034.83
2019-02-22T00:12:27.924Z,1034.83
2019-02-22T00:13:27.930Z,1034.78
2019-02-22T00:14:27.933Z,1034.81
2019-02-22T00:15:27.939Z,1034.85
2019-02-22T00:16:27.943Z,1034.83
2019-02-22T00:17:27.959Z,1034.86
2019-02-22T00:18:27.954Z,1034.92
2019-02-22T00:19:27.958Z,1034.96
2019-02-22T00:20:27.965Z,1034.93
2019-02-22T00:21:27.970Z,1034.90
2019-02-22T00:22:27.971Z,1034.94
2019-02-22T00:23:27.978Z,1034.91
2019-02-22T00:24:27.983Z,1034.94
2019-02-22T00:25:28.037Z,1034.96
2019-02-22T00:26:27.992Z,1034.95
2019-02-22T00:27:27.998Z,1034.98
2019-02-22T00:28:28.012Z,1035.00
2019-02-22T00:29:28.007Z,1034.99
2019-02-22T00:30:28.012Z,1034.98
2019-02-22T00:31:28.017Z,1035.04
2019-02-22T00:32:28.024Z,1035.04
2019-02-22T00:33:28.029Z,1035.10
2019-02-22T00:34:28.052Z,1035.09
2019-02-22T00:35:28.085Z,1035.15
2019-02-22T00:36:28.063Z,1035.20
2019-02-22T00:37:28.078Z,1035.23
2019-02-22T00:38:28.058Z,1035.24
2019-02-22T00:39:28.055Z,1035.23
2019-02-22T00:40:28.063Z,1035.28
2019-02-22T00:41:28.066Z,1035.27
2019-02-22T00:42:28.072Z,1035.31
2019-02-22T00:43:28.078Z,1035.25
2019-02-22T00:44:28.081Z,1035.32
2019-02-22T00:45:28.085Z,1035.31
2019-02-22T00:46:28.097Z,1035.32
2019-02-22T00:47:28.172Z,1035.35
2019-02-22T00:48:28.100Z,1035.38
2019-02-22T00:49:28.108Z,1035.39
2019-02-22T00:50:28.144Z,1035.40
2019-02-22T00:51:28.115Z,1035.37
2019-02-22T00:52:28.122Z,1035.40
2019-02-22T00:53:28.124Z,1035.39
2019-02-22T00:54:28.132Z,1035.37
2019-02-22T00:55:28.136Z,1035.41
2019-02-22T00:56:28.140Z,1035.44
2019-02-22T00:57:28.144Z,1035.45
2019-02-22T00:58:28.148Z,1035.47
2019-02-22T00:59:28.154Z,1035.47
2019-02-22T01:00:28.161Z,1035.49
2019-02-22T01:01:28.162Z,1035.51
2019-02-22T01:02:28.168Z,1035.57
2019-02-22T01:03:28.196Z,1035.55
2019-02-22T01:04:28.182Z,1035.55
2019-02-22T01:05:28.183Z,1035.56
2019-02-22T01:06:28.189Z,1035.57
2019-02-22T01:07:28.194Z,1035.63
2019-02-22T01:08:28.199Z,1035.59
2019-02-22T01:09:28.203Z,1035.61
2019-02-22T01:10:31.358Z,1035.60
2019-02-22T01:11:28.212Z,1035.63
2019-02-22T01:12:28.218Z,1035.63
2019-02-22T01:13:28.221Z,1035.64
2019-02-22T01:14:28.235Z,1035.69
2019-02-22T01:15:28.234Z,1035.68
2019-02-22T01:16:28.239Z,1035.68
2019-02-22T01:17:28.242Z,1035.71
2019-02-22T01:18:28.266Z,1035.71
2019-02-22T01:19:28.255Z,1035.75
2019-02-22T01:20:28.258Z,1035.72
2019-02-22T01:21:28.260Z,1035.72
2019-02-22T01:22:28.268Z,1035.75
2019-02-22T01:23:28.272Z,1035.80
2019-02-22T01:24:28.276Z,1035.79
2019-02-22T01:25:28.280Z,1035.81
2019-02-22T01:26:28.286Z,1035.83
2019-02-22T01:27:28.291Z,1035.83
2019-02-22T01:28:28.297Z,1035.84
2019-02-22T01:29:28.301Z,1035.86
2019-02-22T01:30:28.305Z,1035.88
2019-02-22T01:31:28.316Z,1035.86
2019-02-22T01:32:28.318Z,1035.87
2019-02-22T01:33:28.321Z,1035.84
2019-02-22T01:34:28.325Z,1035.86
2019-02-22T01:35:28.330Z,1035.89
2019-02-22T01:36:28.336Z,1035.88
2019-02-22T01:37:28.339Z,1035.92
2019-02-22T01:38:28.345Z,1035.94
2019-02-22T01:39:28.351Z,1035.97
2019-02-22T01:40:28.354Z,1035.96
2019-02-22T01:41:28.359Z,1036.00
2019-02-22T01:42:28.364Z,1036.01
2019-02-22T01:43:28.368Z,1036.05
2019-02-22T01:44:28.375Z,1036.04
2019-02-22T01:45:28.379Z,1036.14
2019-02-22T01:46:28.384Z,1036.11
2019-02-22T01:47:28.421Z,1036.14
2019-02-22T01:48:28.399Z,1036.17
2019-02-22T01:49:28.399Z,1036.19
2019-02-22T01:50:28.404Z,1036.24
2019-02-22T01:51:28.410Z,1036.26
2019-02-22T01:52:28.415Z,1036.27
2019-02-22T01:53:28.418Z,1036.26
2019-02-22T01:54:28.423Z,1036.19
2019-02-22T01:55:28.430Z,1036.21
2019-02-22T01:56:28.433Z,1036.23
2019-02-22T01:57:28.438Z,1036.23
2019-02-22T01:58:28.441Z,1036.21
2019-02-22T01:59:28.453Z,1036.22
2019-02-22T02:00:28.454Z,1036.21
2019-02-22T02:01:28.456Z,1036.25
2019-02-22T02:02:28.465Z,1036.24
2019-02-22T02:03:28.466Z,1036.32
2019-02-22T02:04:28.472Z,1036.27
2019-02-22T02:05:28.476Z,1036.29
2019-02-22T02:06:28.484Z,1036.29
2019-02-22T02:07:28.487Z,1036.29
2019-02-22T02:08:28.491Z,1036.29
2019-02-22T02:09:28.495Z,1036.30
2019-02-22T02:10:28.501Z,1036.29
2019-02-22T02:11:28.505Z,1036.28
2019-02-22T02:12:28.513Z,1036.34
2019-02-22T02:13:28.515Z,1036.30
2019-02-22T02:14:28.521Z,1036.32
2019-02-22T02:15:28.525Z,1036.34
2019-02-22T02:16:28.531Z,1036.30
2019-02-22T02:17:28.536Z,1036.29
2019-02-22T02:18:28.541Z,1036.28
2019-02-22T02:19:28.546Z,1036.31
2019-02-22T02:20:28.569Z,1036.31
2019-02-22T02:21:28.555Z,1036.33
2019-02-22T02:22:28.561Z,1036.37
2019-02-22T02:23:28.564Z,1036.36
2019-02-22T02:24:28.568Z,1036.32
2019-02-22T02:25:28.573Z,1036.35
2019-02-22T02:26:28.583Z,1036.35
2019-02-22T02:27:28.583Z,1036.40
2019-02-22T02:28:28.589Z,1036.41
2019-02-22T02:29:28.594Z,1036.43
2019-02-22T02:30:28.600Z,1036.48
2019-02-22T02:31:28.608Z,1036.46
2019-02-22T02:32:28.609Z,1036.48
2019-02-22T02:33:28.618Z,1036.51
2019-02-22T02:34:28.634Z,1036.48
2019-02-22T02:35:28.622Z,1036.51
2019-02-22T02:36:28.627Z,1036.51
2019-02-22T02:37:28.632Z,1036.57
2019-02-22T02:38:28.654Z,1036.61
2019-02-22T02:39:28.642Z,1036.60
2019-02-22T02:40:28.647Z,1036.70
2019-02-22T02:41:28.652Z,1036.69
2019-02-22T02:42:28.656Z,1036.78
2019-02-22T02:43:28.660Z,1036.83
2019-02-22T02:44:28.666Z,1036.82
2019-02-22T02:45:28.671Z,1036.93
2019-02-22T02:46:28.675Z,1036.98
2019-02-22T02:47:28.687Z,1036.98
2019-02-22T02:48:28.686Z,1037.02
2019-02-22T02:49:28.691Z,1037.08
2019-02-22T02:50:28.701Z,1037.09
2019-02-22T02:51:28.700Z,1037.12
2019-02-22T02:52:28.705Z,1037.12
2019-02-22T02:53:28.712Z,1037.12
2019-02-22T02:54:28.714Z,1037.15
2019-02-22T02:55:28.718Z,1037.20
2019-02-22T02:56:28.727Z,1037.17
2019-02-22T02:57:28.729Z,1037.21
2019-02-22T02:58:28.742Z,1037.21
2019-02-22T02:59:28.740Z,1037.25
2019-02-22T03:00:28.779Z,1037.24
2019-02-22T03:01:28.750Z,1037.26
2019-02-22T03:02:28.753Z,1037.28
2019-02-22T03:03:28.758Z,1037.32
2019-02-22T03:04:28.763Z,1037.28
2019-02-22T03:05:28.767Z,1037.20
2019-02-22T03:06:28.771Z,1037.29
2019-02-22T03:07:28.780Z,1037.31
2019-02-22T03:08:28.783Z,1037.33
2019-02-22T03:09:28.790Z,1037.36
2019-02-22T03:10:31.430Z,1037.35
2019-02-22T03:11:28.798Z,1037.42
2019-02-22T03:12:28.802Z,1037.45
2019-02-22T03:13:28.806Z,1037.44
2019-02-22T03:14:28.815Z,1037.41
2019-02-22T03:15:29.118Z,1037.44
2019-02-22T03:16:28.823Z,1037.48
2019-02-22T03:17:28.830Z,1037.54
2019-02-22T03:18:28.843Z,1037.51
2019-02-22T03:19:28.836Z,1037.50
2019-02-22T03:20:28.858Z,1037.52
2019-02-22T03:21:28.844Z,1037.54
2019-02-22T03:22:28.850Z,1037.53
2019-02-22T03:23:28.856Z,1037.54
2019-02-22T03:24:28.859Z,1037.60
2019-02-22T03:25:28.863Z,1037.61
2019-02-22T03:26:28.869Z,1037.61
2019-02-22T03:27:28.880Z,1037.62
2019-02-22T03:28:28.880Z,1037.64
2019-02-22T03:29:28.886Z,1037.62
2019-02-22T03:30:28.889Z,1037.61
2019-02-22T03:31:28.896Z,1037.60
2019-02-22T03:32:28.901Z,1037.62
2019-02-22T03:33:29.011Z,1037.71
2019-02-22T03:34:28.908Z,1037.72
2019-02-22T03:35:28.913Z,1037.69
2019-02-22T03:36:28.975Z,1037.70
2019-02-22T03:37:28.922Z,1037.69
2019-02-22T03:38:28.929Z,1037.69
2019-02-22T03:39:28.932Z,1037.69
2019-02-22T03:40:28.936Z,1037.74
2019-02-22T03:41:32.795Z,1037.79
2019-02-22T03:42:28.946Z,1037.84
2019-02-22T03:43:28.976Z,1037.80
2019-02-22T03:44:28.959Z,1037.80
2019-02-22T03:45:28.961Z,1037.83
2019-02-22T03:46:28.966Z,1037.84
2019-02-22T03:47:28.970Z,1037.83
2019-02-22T03:48:28.978Z,1037.84
2019-02-22T03:49:28.990Z,1037.86
2019-02-22T03:50:28.986Z,1037.86
2019-02-22T03:51:28.991Z,1037.84
2019-02-22T03:52:29.000Z,1037.88
2019-02-22T03:53:29.004Z,1037.90
2019-02-22T03:54:29.007Z,1037.92
2019-02-22T03:55:29.009Z,1037.94
2019-02-22T03:56:29.018Z,1037.95
2019-02-22T03:57:29.056Z,1037.96
2019-02-22T03:58:29.023Z,1038.06
2019-02-22T03:59:29.030Z,1038.05
2019-02-22T04:00:29.039Z,1038.07
2019-02-22T04:01:29.048Z,1038.10
2019-02-22T04:02:29.043Z,1038.06
2019-02-22T04:03:29.048Z,1038.09
2019-02-22T04:04:29.053Z,1038.10
2019-02-22T04:05:29.060Z,1038.12
2019-02-22T04:06:29.063Z,1038.10
2019-02-22T04:07:29.074Z,1038.13
2019-02-22T04:08:29.076Z,1038.18
2019-02-22T04:09:29.081Z,1038.17
2019-02-22T04:10:29.081Z,1038.19
2019-02-22T04:11:29.085Z,1038.20
2019-02-22T04:12:29.092Z,1038.22
2019-02-22T04:13:29.096Z,1038.23
2019-02-22T04:14:29.101Z,1038.22
2019-02-22T04:15:29.107Z,1038.28
2019-02-22T04:16:29.112Z,1038.29
2019-02-22T04:17:29.119Z,1038.32
2019-02-22T04:18:29.120Z,1038.33
2019-02-22T04:19:29.127Z,1038.32
2019-02-22T04:20:29.130Z,1038.36
2019-02-22T04:21:29.134Z,1038.39
2019-02-22T04:22:29.139Z,1038.42
2019-02-22T04:23:29.144Z,1038.44
2019-02-22T04:24:29.149Z,1038.48
2019-02-22T04:25:29.154Z,1038.48
2019-02-22T04:26:29.160Z,1038.46
2019-02-22T04:27:29.163Z,1038.47
2019-02-22T04:28:29.168Z,1038.47
2019-02-22T04:29:29.172Z,1038.49
2019-02-22T04:30:29.177Z,1038.45
2019-02-22T04:31:29.190Z,1038.49
2019-02-22T04:32:29.189Z,1038.48
2019-02-22T04:33:29.191Z,1038.53
2019-02-22T04:34:29.202Z,1038.52
2019-02-22T04:35:29.203Z,1038.53
2019-02-22T04:36:29.209Z,1038.54
2019-02-22T04:37:29.211Z,1038.55
2019-02-22T04:38:29.216Z,1038.53
2019-02-22T04:39:29.219Z,1038.55
2019-02-22T04:40:29.227Z,1038.55
2019-02-22T04:41:29.230Z,1038.58
2019-02-22T04:42:29.235Z,1038.57
2019-02-22T04:43:29.239Z,1038.64
2019-02-22T04:44:29.246Z,1038.63
2019-02-22T04:45:29.501Z,1038.65
2019-02-22T04:46:29.254Z,1038.67
2019-02-22T04:47:29.259Z,1038.66
2019-02-22T04:48:29.265Z,1038.67
2019-02-22T04:49:29.268Z,1038.66
2019-02-22T04:50:29.272Z,1038.69
2019-02-22T04:51:29.278Z,1038.76
2019-02-22T04:52:29.282Z,1038.76
2019-02-22T04:53:29.293Z,1038.77
2019-02-22T04:54:29.294Z,1038.83
2019-02-22T04:55:29.498Z,1038.82
2019-02-22T04:56:29.305Z,1038.86
2019-02-22T04:57:29.307Z,1038.89
2019-02-22T04:58:29.312Z,1038.92
2019-02-22T04:59:29.317Z,1038.88
2019-02-22T05:00:29.324Z,1038.90
2019-02-22T05:01:29.327Z,1038.92
2019-02-22T05:02:29.334Z,1038.98
2019-02-22T05:03:29.336Z,1039.00
2019-02-22T05:04:29.341Z,1039.01
2019-02-22T05:05:29.345Z,1039.04
2019-02-22T05:06:29.351Z,1039.04
2019-02-22T05:07:29.358Z,1039.05
2019-02-22T05:08:29.362Z,1039.07
2019-02-22T05:09:29.378Z,1039.12
2019-02-22T05:10:29.369Z,1039.09
2019-02-22T05:11:29.378Z,1039.11
2019-02-22T05:12:29.381Z,1039.16
2019-02-22T05:13:29.384Z,1039.12
2019-02-22T05:14:29.427Z,1039.09
2019-02-22T05:15:29.400Z,1039.11
2019-02-22T05:16:29.399Z,1039.10
2019-02-22T05:17:29.403Z,1039.13
2019-02-22T05:18:29.409Z,1039.18
2019-02-22T05:19:29.425Z,1039.13
2019-02-22T05:20:29.418Z,1039.18
2019-02-22T05:21:29.420Z,1039.21
2019-02-22T05:22:29.427Z,1039.20
2019-02-22T05:23:29.434Z,1039.27
2019-02-22T05:24:29.438Z,1039.26
2019-02-22T05:25:29.442Z,1039.27
2019-02-22T05:26:29.447Z,1039.28
2019-02-22T05:27:29.451Z,1039.25
2019-02-22T05:28:29.457Z,1039.28
2019-02-22T05:29:29.502Z,1039.27
2019-02-22T05:30:29.463Z,1039.34
2019-02-22T05:31:29.478Z,1039.35
2019-02-22T05:32:29.476Z,1039.34
2019-02-22T05:33:29.478Z,1039.38
2019-02-22T05:34:29.483Z,1039.40
2019-02-22T05:35:29.490Z,1039.40
2019-02-22T05:36:29.493Z,1039.40
2019-02-22T05:37:29.503Z,1039.43
2019-02-22T05:38:29.505Z,1039.41
2019-02-22T05:39:29.510Z,1039.46
2019-02-22T05:40:29.513Z,1039.50
2019-02-22T05:41:29.517Z,1039.54
2019-02-22T05:42:29.521Z,1039.55
2019-02-22T05:43:29.526Z,1039.56
2019-02-22T05:44:29.533Z,1039.60
2019-02-22T05:45:29.536Z,1039.57
2019-02-22T05:46:29.541Z,1039.59
2019-02-22T05:47:29.547Z,1039.59
2019-02-22T05:48:29.553Z,1039.62
2019-02-22T05:49:29.556Z,1039.64
2019-02-22T05:50:29.573Z,1039.68
2019-02-22T05:51:29.567Z,1039.64
2019-02-22T05:52:29.571Z,1039.68
2019-02-22T05:53:29.575Z,1039.72
2019-02-22T05:54:29.579Z,1039.75
2019-02-22T05:55:29.584Z,1039.74
2019-02-22T05:56:29.591Z,1039.72
2019-02-22T05:57:29.594Z,1039.75
2019-02-22T05:58:29.599Z,1039.71
2019-02-22T05:59:29.603Z,1039.73
2019-02-22T06:00:29.608Z,1039.76
2019-02-22T06:01:29.612Z,1039.79
2019-02-22T06:02:29.619Z,1039.80
2019-02-22T06:03:29.623Z,1039.81
2019-02-22T06:04:29.632Z,1039.86
2019-02-22T06:05:29.631Z,1039.87
2019-02-22T06:06:29.637Z,1039.84
2019-02-22T06:07:29.647Z,1039.86
2019-02-22T06:08:29.649Z,1039.86
2019-02-22T06:09:29.660Z,1039.84
2019-02-22T06:10:29.656Z,1039.88
2019-02-22T06:11:29.723Z,1039.91
2019-02-22T06:12:34.581Z,1039.92
2019-02-22T06:13:29.669Z,1039.94
2019-02-22T06:14:29.676Z,1039.95
2019-02-22T06:15:31.487Z,1039.96
2019-02-22T06:16:29.691Z,1039.93
2019-02-22T06:17:29.689Z,1039.91
2019-02-22T06:18:29.694Z,1039.95
2019-02-22T06:19:29.698Z,1039.93
2019-02-22T06:20:29.713Z,1039.96
2019-02-22T06:21:29.709Z,1039.97
2019-02-22T06:22:30.125Z,1039.97
2019-02-22T06:23:29.718Z,1039.99
2019-02-22T06:24:29.724Z,1039.98
2019-02-22T06:25:29.728Z,1040.03
2019-02-22T06:26:30.455Z,1040.02
2019-02-22T06:27:29.738Z,1040.04
2019-02-22T06:28:29.740Z,1040.06
2019-02-22T06:29:29.746Z,1040.08
2019-02-22T06:30:29.751Z,1040.11
2019-02-22T06:31:29.754Z,1040.11
2019-02-22T06:32:29.761Z,1040.12
2019-02-22T06:33:29.767Z,1040.16
2019-02-22T06:34:29.769Z,1040.16
2019-02-22T06:35:29.774Z,1040.17
2019-02-22T06:36:29.781Z,1040.10
2019-02-22T06:37:29.785Z,1040.19
2019-02-22T06:38:29.801Z,1040.19
2019-02-22T06:39:29.798Z,1040.15
2019-02-22T06:40:29.799Z,1040.22
2019-02-22T06:41:29.804Z,1040.24
2019-02-22T06:42:29.808Z,1040.28
2019-02-22T06:43:29.813Z,1040.28
2019-02-22T06:44:29.818Z,1040.28
2019-02-22T06:45:29.821Z,1040.33
2019-02-22T06:46:29.826Z,1040.34
2019-02-22T06:47:29.831Z,1040.36
2019-02-22T06:48:29.837Z,1040.40
2019-02-22T06:49:29.842Z,1040.40
2019-02-22T06:50:33.656Z,1040.38
2019-02-22T06:51:29.850Z,1040.42
2019-02-22T06:52:29.923Z,1040.42
2019-02-22T06:53:29.966Z,1040.46
2019-02-22T06:54:29.864Z,1040.44
2019-02-22T06:55:29.881Z,1040.49
2019-02-22T06:56:29.901Z,1040.48
2019-02-22T06:57:29.882Z,1040.54
2019-02-22T06:58:29.885Z,1040.53
2019-02-22T06:59:29.890Z,1040.55
2019-02-22T07:00:29.977Z,1040.61
2019-02-22T07:01:29.899Z,1040.59
2019-02-22T07:02:29.904Z,1040.65
2019-02-22T07:03:29.911Z,1040.68
2019-02-22T07:04:29.915Z,1040.65
2019-02-22T07:05:29.918Z,1040.65
2019-02-22T07:06:29.925Z,1040.65
2019-02-22T07:07:29.927Z,1040.68
2019-02-22T07:08:29.933Z,1040.72
2019-02-22T07:09:29.940Z,1040.71
2019-02-22T07:10:29.945Z,1040.76
2019-02-22T07:11:29.949Z,1040.74
2019-02-22T07:12:29.952Z,1040.76
2019-02-22T07:13:29.955Z,1040.77
2019-02-22T07:14:29.963Z,1040.81
2019-02-22T07:15:29.965Z,1040.81
2019-02-22T07:16:29.969Z,1040.84
2019-02-22T07:17:29.975Z,1040.79
2019-02-22T07:18:29.980Z,1040.86
2019-02-22T07:19:29.986Z,1040.86
2019-02-22T07:20:29.992Z,1040.91
2019-02-22T07:21:40.366Z,1040.93
2019-02-22T07:22:29.998Z,1040.95
2019-02-22T07:23:30.003Z,1040.99
2019-02-22T07:24:30.009Z,1040.98
2019-02-22T07:25:30.013Z,1041.01
2019-02-22T07:26:30.019Z,1041.04
2019-02-22T07:27:30.031Z,1041.06
2019-02-22T07:28:30.028Z,1041.04
2019-02-22T07:29:30.036Z,1041.08
2019-02-22T07:30:30.048Z,1041.10
2019-02-22T07:31:30.043Z,1041.06
2019-02-22T07:32:30.052Z,1041.12
2019-02-22T07:33:30.053Z,1041.09
2019-02-22T07:34:30.057Z,1041.11
2019-02-22T07:35:30.066Z,1041.14
2019-02-22T07:36:30.071Z,1041.12
2019-02-22T07:37:30.075Z,1041.17
2019-02-22T07:38:30.084Z,1041.20
2019-02-22T07:39:30.081Z,1041.21
2019-02-22T07:40:30.085Z,1041.21
2019-02-22T07:41:30.090Z,1041.20
2019-02-22T07:42:30.095Z,1041.19
2019-02-22T07:43:30.101Z,1041.25
2019-02-22T07:44:30.110Z,1041.23
2019-02-22T07:45:30.192Z,1041.29
2019-02-22T07:46:30.114Z,1041.26
2019-02-22T07:47:30.120Z,1041.27
2019-02-22T07:48:30.196Z,1041.32
2019-02-22T07:49:30.129Z,1041.31
2019-02-22T07:50:30.133Z,1041.34
2019-02-22T07:51:30.138Z,1041.34
2019-02-22T07:52:30.144Z,1041.31
2019-02-22T07:53:30.148Z,1041.36
2019-02-22T07:54:30.153Z,1041.36
2019-02-22T07:55:30.157Z,1041.36
2019-02-22T07:56:30.202Z,1041.38
2019-02-22T07:57:30.165Z,1041.40
2019-02-22T07:58:30.171Z,1041.44
2019-02-22T07:59:30.176Z,1041.45
2019-02-22T08:00:30.183Z,1041.49
2019-02-22T08:01:30.186Z,1041.45
2019-02-22T08:02:30.190Z,1041.46
2019-02-22T08:03:30.208Z,1041.49
2019-02-22T08:04:30.201Z,1041.47
2019-02-22T08:05:30.207Z,1041.51
2019-02-22T08:06:30.209Z,1041.55
2019-02-22T08:07:30.217Z,1041.52
2019-02-22T08:08:30.221Z,1041.56
2019-02-22T08:09:30.224Z,1041.54
2019-02-22T08:10:30.228Z,1041.53
2019-02-22T08:11:30.235Z,1041.61
2019-02-22T08:12:30.240Z,1041.58
2019-02-22T08:13:30.247Z,1041.59
2019-02-22T08:14:30.247Z,1041.62
2019-02-22T08:15:30.256Z,1041.60
2019-02-22T08:16:30.259Z,1041.66
2019-02-22T08:17:30.261Z,1041.66
2019-02-22T08:18:30.267Z,1041.67
2019-02-22T08:19:30.273Z,1041.70
2019-02-22T08:20:30.278Z,1041.72
2019-02-22T08:21:30.282Z,1041.70
2019-02-22T08:22:30.287Z,1041.67
2019-02-22T08:23:30.293Z,1041.67
2019-02-22T08:24:30.302Z,1041.69
2019-02-22T08:25:30.302Z,1041.70
2019-02-22T08:26:30.307Z,1041.71
2019-02-22T08:27:30.311Z,1041.68
2019-02-22T08:28:30.431Z,1041.72
2019-02-22T08:29:30.322Z,1041.77
2019-02-22T08:30:30.327Z,1041.77
2019-02-22T08:31:30.331Z,1041.77
2019-02-22T08:32:30.336Z,1041.80
2019-02-22T08:33:30.342Z,1041.83
2019-02-22T08:34:30.345Z,1041.86
2019-02-22T08:35:30.349Z,1041.91
2019-02-22T08:36:30.356Z,1041.89
2019-02-22T08:37:30.360Z,1041.94
2019-02-22T08:38:30.365Z,1041.94
2019-02-22T08:39:30.370Z,1041.95
2019-02-22T08:40:30.374Z,1041.92
2019-02-22T08:41:30.379Z,1041.93
2019-02-22T08:42:30.384Z,1041.89
2019-02-22T08:43:31.779Z,1041.91
2019-02-22T08:44:30.396Z,1041.94
2019-02-22T08:45:30.399Z,1041.91
2019-02-22T08:46:30.405Z,1041.92
2019-02-22T08:47:30.409Z,1041.96
2019-02-22T08:48:30.468Z,1041.95
2019-02-22T08:49:30.427Z,1041.94
2019-02-22T08:50:30.491Z,1041.93
2019-02-22T08:51:30.433Z,1041.93
2019-02-22T08:52:30.433Z,1041.98
2019-02-22T08:53:30.437Z,1041.94
2019-02-22T08:54:30.446Z,1041.95
2019-02-22T08:55:30.448Z,1041.95
2019-02-22T08:56:30.451Z,1041.91
2019-02-22T08:57:30.457Z,1041.98
2019-02-22T08:58:30.466Z,1041.97
2019-02-22T08:59:30.520Z,1041.97
2019-02-22T09:00:30.472Z,1041.99
2019-02-22T09:01:30.475Z,1041.98
2019-02-22T09:02:30.503Z,1041.95
2019-02-22T09:03:30.489Z,1041.92
2019-02-22T09:04:30.491Z,1041.95
2019-02-22T09:05:30.495Z,1041.99
2019-02-22T09:06:30.502Z,1041.97
2019-02-22T09:07:30.506Z,1041.98
2019-02-22T09:08:30.512Z,1041.99
2019-02-22T09:09:30.514Z,1041.98
2019-02-22T09:10:30.521Z,1041.97
2019-02-22T09:11:30.525Z,1041.93
2019-02-22T09:12:30.533Z,1041.96
2019-02-22T09:13:30.539Z,1041.94
2019-02-22T09:14:30.540Z,1041.96
2019-02-22T09:15:30.551Z,1041.94
2019-02-22T09:16:30.599Z,1041.95
2019-02-22T09:17:30.555Z,1041.96
2019-02-22T09:18:30.560Z,1041.98
2019-02-22T09:19:30.570Z,1042.00
2019-02-22T09:20:30.573Z,1042.00
2019-02-22T09:21:30.575Z,1042.03
2019-02-22T09:22:30.580Z,1042.03
2019-02-22T09:23:30.591Z,1042.01
2019-02-22T09:24:30.592Z,1042.02
2019-02-22T09:25:30.595Z,1042.03
2019-02-22T09:26:30.599Z,1042.07
2019-02-22T09:27:30.604Z,1042.04
2019-02-22T09:28:30.610Z,1042.11
2019-02-22T09:29:30.615Z,1042.08
2019-02-22T09:30:30.622Z,1042.09
2019-02-22T09:31:30.625Z,1042.07
2019-02-22T09:32:30.631Z,1042.07
2019-02-22T09:33:30.637Z,1042.09
2019-02-22T09:34:30.640Z,1042.11
2019-02-22T09:35:30.644Z,1042.08
2019-02-22T09:36:30.651Z,1042.09
2019-02-22T09:37:30.655Z,1042.10
2019-02-22T09:38:30.660Z,1042.09
2019-02-22T09:39:30.665Z,1042.15
2019-02-22T09:40:30.671Z,1042.26
2019-02-22T09:41:30.675Z,1042.19
2019-02-22T09:42:30.680Z,1042.19
2019-02-22T09:43:30.685Z,1042.22
2019-02-22T09:44:30.690Z,1042.21
2019-02-22T09:45:30.695Z,1042.22
2019-02-22T09:46:30.700Z,1042.20
2019-02-22T09:47:30.705Z,1042.16
2019-02-22T09:48:30.711Z,1042.18
2019-02-22T09:49:30.723Z,1042.20
2019-02-22T09:50:30.721Z,1042.22
2019-02-22T09:51:30.725Z,1042.24
2019-02-22T09:52:30.734Z,1042.26
2019-02-22T09:53:30.768Z,1042.25
2019-02-22T09:54:30.742Z,1042.30
2019-02-22T09:55:30.747Z,1042.26
2019-02-22T09:56:30.753Z,1042.25
2019-02-22T09:57:30.757Z,1042.24
2019-02-22T09:58:30.762Z,1042.29
2019-02-22T09:59:30.768Z,1042.23
2019-02-22T10:00:30.776Z,1042.27
2019-02-22T10:01:30.776Z,1042.25
2019-02-22T10:02:30.784Z,1042.23
2019-02-22T10:03:30.787Z,1042.19
2019-02-22T10:04:30.794Z,1042.23
2019-02-22T10:05:30.798Z,1042.21
2019-02-22T10:06:30.803Z,1042.20
2019-02-22T10:07:30.810Z,1042.17
2019-02-22T10:08:30.814Z,1042.21
2019-02-22T10:09:30.818Z,1042.19
2019-02-22T10:10:30.825Z,1042.17
2019-02-22T10:11:30.831Z,1042.20
2019-02-22T10:12:30.842Z,1042.26
2019-02-22T10:13:30.840Z,1042.30
2019-02-22T10:14:30.852Z,1042.21
2019-02-22T10:15:30.852Z,1042.25
2019-02-22T10:16:30.859Z,1042.24
2019-02-22T10:17:30.863Z,1042.28
2019-02-22T10:18:30.868Z,1042.25
2019-02-22T10:19:30.872Z,1042.25
2019-02-22T10:20:30.879Z,1042.22
2019-02-22T10:21:30.886Z,1042.23
2019-02-22T10:22:30.891Z,1042.27
2019-02-22T10:23:30.895Z,1042.23
2019-02-22T10:24:30.901Z,1042.25
2019-02-22T10:25:30.906Z,1042.24
2019-02-22T10:26:30.912Z,1042.23
2019-02-22T10:27:30.917Z,1042.22
2019-02-22T10:28:30.922Z,1042.19
2019-02-22T10:29:30.940Z,1042.18
2019-02-22T10:30:30.966Z,1042.20
2019-02-22T10:31:31.090Z,1042.20
2019-02-22T10:32:30.946Z,1042.20
2019-02-22T10:33:36.761Z,1042.21
2019-02-22T10:34:30.959Z,1042.17
2019-02-22T10:35:30.962Z,1042.16
2019-02-22T10:36:30.969Z,1042.13
2019-02-22T10:37:30.976Z,1042.12
2019-02-22T10:38:34.951Z,1042.11
2019-02-22T10:39:30.984Z,1042.10
2019-02-22T10:40:30.994Z,1042.11
2019-02-22T10:41:30.996Z,1042.09
2019-02-22T10:42:31.227Z,1042.11
2019-02-22T10:43:31.008Z,1042.14
2019-02-22T10:44:31.014Z,1042.13
2019-02-22T10:45:31.019Z,1042.17
2019-02-22T10:46:31.024Z,1042.17
2019-02-22T10:47:31.035Z,1042.19
2019-02-22T10:48:31.039Z,1042.21
2019-02-22T10:49:31.042Z,1042.20
2019-02-22T10:50:31.048Z,1042.26
2019-02-22T10:51:31.059Z,1042.28
2019-02-22T10:52:31.062Z,1042.32
2019-02-22T10:53:31.066Z,1042.31
2019-02-22T10:54:31.082Z,1042.30
2019-02-22T10:55:31.078Z,1042.27
2019-02-22T10:56:31.086Z,1042.29
2019-02-22T10:57:31.091Z,1042.33
2019-02-22T10:58:31.095Z,1042.33
2019-02-22T10:59:31.102Z,1042.33
2019-02-22T11:00:31.109Z,1042.31
2019-02-22T11:01:31.113Z,1042.32
2019-02-22T11:02:31.383Z,1042.39
2019-02-22T11:03:31.126Z,1042.41
2019-02-22T11:04:31.132Z,1042.45
2019-02-22T11:05:31.137Z,1042.48
2019-02-22T11:06:31.144Z,1042.48
2019-02-22T11:07:31.151Z,1042.48
2019-02-22T11:08:31.157Z,1042.59
2019-02-22T11:09:31.165Z,1042.63
2019-02-22T11:10:31.168Z,1042.66
2019-02-22T11:11:31.176Z,1042.65
2019-02-22T11:12:31.180Z,1042.66
2019-02-22T11:13:31.186Z,1042.68
2019-02-22T11:14:31.192Z,1042.70
2019-02-22T11:15:31.201Z,1042.72
2019-02-22T11:16:31.206Z,1042.65
2019-02-22T11:17:31.211Z,1042.68
2019-02-22T11:18:31.218Z,1042.77
2019-02-22T11:19:31.224Z,1042.92
2019-02-22T11:20:31.230Z,1043.07
2019-02-22T11:21:31.236Z,1043.14
2019-02-22T11:22:31.242Z,1043.17
2019-02-22T11:23:31.252Z,1043.14
2019-02-22T11:24:31.255Z,1043.12
2019-02-22T11:25:31.261Z,1043.17
2019-02-22T11:26:31.267Z,1043.12
2019-02-22T11:27:31.274Z,1042.95
2019-02-22T11:28:31.309Z,1042.77
2019-02-22T11:29:31.287Z,1042.73
2019-02-22T11:30:31.295Z,1042.70
2019-02-22T11:31:31.312Z,1042.74
2019-02-22T11:32:31.307Z,1042.71
2019-02-22T11:33:31.312Z,1042.77
2019-02-22T11:34:31.318Z,1042.73
2019-02-22T11:35:31.331Z,1042.83
2019-02-22T11:36:31.339Z,1042.95
2019-02-22T11:37:31.341Z,1042.95
2019-02-22T11:38:31.346Z,1042.93
2019-02-22T11:39:31.355Z,1042.93
2019-02-22T11:40:33.569Z,1042.90
2019-02-22T11:41:31.370Z,1042.87
2019-02-22T11:42:31.377Z,1042.81
2019-02-22T11:43:31.385Z,1042.75
2019-02-22T11:44:39.855Z,1042.69
2019-02-22T11:45:31.400Z,1042.64
2019-02-22T11:46:31.408Z,1042.64
2019-02-22T11:47:31.417Z,1042.70
2019-02-22T11:48:31.640Z,1042.66
2019-02-22T11:49:31.434Z,1042.67
2019-02-22T11:50:31.442Z,1042.64
2019-02-22T11:51:31.452Z,1042.57
2019-02-22T11:52:31.461Z,1042.52
2019-02-22T11:53:31.468Z,1042.48
2019-02-22T11:54:31.478Z,1042.50
2019-02-22T11:55:31.488Z,1042.47
2019-02-22T11:56:31.501Z,1042.50
2019-02-22T11:57:31.506Z,1042.47
2019-02-22T11:58:31.514Z,1042.50
2019-02-22T11:59:31.524Z,1042.48
2019-02-22T12:00:31.539Z,1042.47
2019-02-22T12:01:31.543Z,1042.39
2019-02-22T12:02:31.552Z,1042.39
2019-02-22T12:03:31.566Z,1042.42
2019-02-22T12:04:31.597Z,1042.37
2019-02-22T12:05:31.582Z,1042.35